sensor_id;sensor_type;location;lat;lon;timestamp;temperature;humidity
20155;DHT22;10238;49.556;10.956;2023-08-21T00:00:23;23.90;99.90
20155;DHT22;10238;49.556;10.956;2023-08-21T00:03:10;23.90;99.90
20155;DHT22;10238;49.556;10.956;2023-08-21T00:05:58;23.90;99.90
20155;DHT22;10238;49.556;10.956;2023-08-21T00:08:46;23.90;99.90
20155;DHT22;10238;49.556;10.956;2023-08-21T00:11:33;23.80;99.90
20155;DHT22;10238;49.556;10.956;2023-08-21T00:14:21;23.80;99.90
20155;DHT22;10238;49.556;10.956;2023-08-21T00:17:10;23.80;99.90
20155;DHT22;10238;49.556;10.956;2023-08-21T00:19:58;23.80;99.90
20155;DHT22;10238;49.556;10.956;2023-08-21T00:22:46;23.80;99.90
20155;DHT22;10238;49.556;10.956;2023-08-21T00:25:33;23.80;99.90
20155;DHT22;10238;49.556;10.956;2023-08-21T00:28:21;23.80;99.90
20155;DHT22;10238;49.556;10.956;2023-08-21T00:31:08;23.80;99.90
20155;DHT22;10238;49.556;10.956;2023-08-21T00:33:57;23.70;99.90
20155;DHT22;10238;49.556;10.956;2023-08-21T00:36:45;23.70;99.90
20155;DHT22;10238;49.556;10.956;2023-08-21T00:39:33;23.70;99.90
20155;DHT22;10238;49.556;10.956;2023-08-21T00:42:20;23.70;99.90
20155;DHT22;10238;49.556;10.956;2023-08-21T00:45:08;23.70;99.90
20155;DHT22;10238;49.556;10.956;2023-08-21T00:47:57;23.70;99.90
20155;DHT22;10238;49.556;10.956;2023-08-21T00:50:46;23.60;99.90
20155;DHT22;10238;49.556;10.956;2023-08-21T00:53:35;23.60;99.90
20155;DHT22;10238;49.556;10.956;2023-08-21T00:56:23;23.60;99.90
20155;DHT22;10238;49.556;10.956;2023-08-21T00:59:11;23.60;99.90
20155;DHT22;10238;49.556;10.956;2023-08-21T01:01:59;23.60;99.90
20155;DHT22;10238;49.556;10.956;2023-08-21T01:04:47;23.60;99.90
20155;DHT22;10238;49.556;10.956;2023-08-21T01:07:40;23.60;99.90
20155;DHT22;10238;49.556;10.956;2023-08-21T01:10:50;23.50;99.90
20155;DHT22;10238;49.556;10.956;2023-08-21T01:13:47;23.50;99.90
20155;DHT22;10238;49.556;10.956;2023-08-21T01:16:44;23.60;99.90
20155;DHT22;10238;49.556;10.956;2023-08-21T01:19:41;23.60;99.90
20155;DHT22;10238;49.556;10.956;2023-08-21T01:22:37;23.60;99.90
20155;DHT22;10238;49.556;10.956;2023-08-21T01:25:27;23.60;99.90
20155;DHT22;10238;49.556;10.956;2023-08-21T01:28:15;23.50;99.90
20155;DHT22;10238;49.556;10.956;2023-08-21T01:31:07;23.50;99.90
20155;DHT22;10238;49.556;10.956;2023-08-21T01:34:07;23.40;99.90
20155;DHT22;10238;49.556;10.956;2023-08-21T01:36:58;23.40;99.90
20155;DHT22;10238;49.556;10.956;2023-08-21T01:39:46;23.40;99.90
20155;DHT22;10238;49.556;10.956;2023-08-21T01:42:35;23.40;99.90
20155;DHT22;10238;49.556;10.956;2023-08-21T01:45:24;23.40;99.90
20155;DHT22;10238;49.556;10.956;2023-08-21T01:48:11;23.40;99.90
20155;DHT22;10238;49.556;10.956;2023-08-21T01:51:00;23.30;99.90
20155;DHT22;10238;49.556;10.956;2023-08-21T01:53:48;23.30;99.90
20155;DHT22;10238;49.556;10.956;2023-08-21T01:56:36;23.20;99.90
20155;DHT22;10238;49.556;10.956;2023-08-21T01:59:25;23.20;99.90
20155;DHT22;10238;49.556;10.956;2023-08-21T02:02:13;23.20;99.90
20155;DHT22;10238;49.556;10.956;2023-08-21T02:05:01;23.10;99.90
20155;DHT22;10238;49.556;10.956;2023-08-21T02:07:49;23.10;99.90
20155;DHT22;10238;49.556;10.956;2023-08-21T02:10:37;23.00;99.90
20155;DHT22;10238;49.556;10.956;2023-08-21T02:13:24;23.00;99.90
20155;DHT22;10238;49.556;10.956;2023-08-21T02:16:14;23.00;99.90
20155;DHT22;10238;49.556;10.956;2023-08-21T02:19:01;23.00;99.90
20155;DHT22;10238;49.556;10.956;2023-08-21T02:21:49;23.00;99.90
20155;DHT22;10238;49.556;10.956;2023-08-21T02:24:36;23.00;99.90
20155;DHT22;10238;49.556;10.956;2023-08-21T02:27:24;23.00;99.90
20155;DHT22;10238;49.556;10.956;2023-08-21T02:30:12;23.10;99.90
20155;DHT22;10238;49.556;10.956;2023-08-21T02:33:02;23.10;99.90
20155;DHT22;10238;49.556;10.956;2023-08-21T02:35:50;23.10;99.90
20155;DHT22;10238;49.556;10.956;2023-08-21T02:38:38;23.10;99.90
20155;DHT22;10238;49.556;10.956;2023-08-21T02:41:25;23.10;99.90
20155;DHT22;10238;49.556;10.956;2023-08-21T02:44:13;23.10;99.90
20155;DHT22;10238;49.556;10.956;2023-08-21T02:47:01;23.10;99.90
20155;DHT22;10238;49.556;10.956;2023-08-21T02:49:50;23.10;99.90
20155;DHT22;10238;49.556;10.956;2023-08-21T02:52:37;23.00;99.90
20155;DHT22;10238;49.556;10.956;2023-08-21T02:55:26;23.00;99.90
20155;DHT22;10238;49.556;10.956;2023-08-21T02:58:14;23.00;99.90
20155;DHT22;10238;49.556;10.956;2023-08-21T03:01:01;23.00;99.90
20155;DHT22;10238;49.556;10.956;2023-08-21T03:03:49;23.00;99.90
20155;DHT22;10238;49.556;10.956;2023-08-21T03:06:37;23.00;99.90
20155;DHT22;10238;49.556;10.956;2023-08-21T03:09:25;23.00;99.90
20155;DHT22;10238;49.556;10.956;2023-08-21T03:12:13;23.00;99.90
20155;DHT22;10238;49.556;10.956;2023-08-21T03:15:00;23.00;99.90
20155;DHT22;10238;49.556;10.956;2023-08-21T03:17:49;23.00;99.90
20155;DHT22;10238;49.556;10.956;2023-08-21T03:20:37;23.00;99.90
20155;DHT22;10238;49.556;10.956;2023-08-21T03:23:26;22.90;99.90
20155;DHT22;10238;49.556;10.956;2023-08-21T03:26:13;22.90;99.90
20155;DHT22;10238;49.556;10.956;2023-08-21T03:29:01;22.90;99.90
20155;DHT22;10238;49.556;10.956;2023-08-21T03:31:49;22.90;99.90
20155;DHT22;10238;49.556;10.956;2023-08-21T03:34:36;22.90;99.90
20155;DHT22;10238;49.556;10.956;2023-08-21T03:37:24;22.90;99.90
20155;DHT22;10238;49.556;10.956;2023-08-21T03:40:13;22.90;99.90
20155;DHT22;10238;49.556;10.956;2023-08-21T03:43:01;22.90;99.90
20155;DHT22;10238;49.556;10.956;2023-08-21T03:45:48;22.90;99.90
20155;DHT22;10238;49.556;10.956;2023-08-21T03:48:36;22.90;99.90
20155;DHT22;10238;49.556;10.956;2023-08-21T03:51:24;22.90;99.90
20155;DHT22;10238;49.556;10.956;2023-08-21T03:54:11;22.90;99.90
20155;DHT22;10238;49.556;10.956;2023-08-21T03:57:00;22.90;99.90
20155;DHT22;10238;49.556;10.956;2023-08-21T03:59:48;22.90;99.90
20155;DHT22;10238;49.556;10.956;2023-08-21T04:02:35;22.90;99.90
20155;DHT22;10238;49.556;10.956;2023-08-21T04:05:23;22.80;99.90
20155;DHT22;10238;49.556;10.956;2023-08-21T04:08:11;22.80;99.90
20155;DHT22;10238;49.556;10.956;2023-08-21T04:10:58;22.80;99.90
20155;DHT22;10238;49.556;10.956;2023-08-21T04:13:48;22.80;99.90
20155;DHT22;10238;49.556;10.956;2023-08-21T04:16:36;22.80;99.90
20155;DHT22;10238;49.556;10.956;2023-08-21T04:19:23;22.80;99.90
20155;DHT22;10238;49.556;10.956;2023-08-21T04:22:16;22.80;99.90
20155;DHT22;10238;49.556;10.956;2023-08-21T04:25:05;22.70;99.90
20155;DHT22;10238;49.556;10.956;2023-08-21T04:27:53;22.70;99.90
20155;DHT22;10238;49.556;10.956;2023-08-21T04:30:42;22.70;99.90
20155;DHT22;10238;49.556;10.956;2023-08-21T04:33:30;22.70;99.90
20155;DHT22;10238;49.556;10.956;2023-08-21T04:36:19;22.70;99.90
20155;DHT22;10238;49.556;10.956;2023-08-21T04:39:06;22.60;99.90
20155;DHT22;10238;49.556;10.956;2023-08-21T04:41:55;22.60;99.90
20155;DHT22;10238;49.556;10.956;2023-08-21T04:44:42;22.60;99.90
20155;DHT22;10238;49.556;10.956;2023-08-21T04:47:31;22.60;99.90
20155;DHT22;10238;49.556;10.956;2023-08-21T04:50:19;22.60;99.90
20155;DHT22;10238;49.556;10.956;2023-08-21T04:53:07;22.50;99.90
20155;DHT22;10238;49.556;10.956;2023-08-21T04:55:54;22.60;99.90
20155;DHT22;10238;49.556;10.956;2023-08-21T04:58:42;22.60;99.90
20155;DHT22;10238;49.556;10.956;2023-08-21T05:01:29;22.60;99.90
20155;DHT22;10238;49.556;10.956;2023-08-21T05:04:18;22.60;99.90
20155;DHT22;10238;49.556;10.956;2023-08-21T05:07:06;22.60;99.90
20155;DHT22;10238;49.556;10.956;2023-08-21T05:09:54;22.50;99.90
20155;DHT22;10238;49.556;10.956;2023-08-21T05:12:41;22.60;99.90
20155;DHT22;10238;49.556;10.956;2023-08-21T05:15:29;22.60;99.90
20155;DHT22;10238;49.556;10.956;2023-08-21T05:18:17;22.60;99.90
20155;DHT22;10238;49.556;10.956;2023-08-21T05:21:05;22.60;99.90
20155;DHT22;10238;49.556;10.956;2023-08-21T05:23:53;22.60;99.90
20155;DHT22;10238;49.556;10.956;2023-08-21T05:26:41;22.60;99.90
20155;DHT22;10238;49.556;10.956;2023-08-21T05:29:28;22.60;99.90
20155;DHT22;10238;49.556;10.956;2023-08-21T05:32:16;22.70;99.90
20155;DHT22;10238;49.556;10.956;2023-08-21T05:35:04;22.60;99.90
20155;DHT22;10238;49.556;10.956;2023-08-21T05:37:55;22.70;99.90
20155;DHT22;10238;49.556;10.956;2023-08-21T05:40:43;22.70;99.90
20155;DHT22;10238;49.556;10.956;2023-08-21T05:43:31;22.70;99.90
20155;DHT22;10238;49.556;10.956;2023-08-21T05:46:20;22.80;99.90
20155;DHT22;10238;49.556;10.956;2023-08-21T05:49:08;22.80;99.90
20155;DHT22;10238;49.556;10.956;2023-08-21T05:51:56;22.90;99.90
20155;DHT22;10238;49.556;10.956;2023-08-21T05:54:46;23.00;99.90
20155;DHT22;10238;49.556;10.956;2023-08-21T05:57:33;23.10;99.90
20155;DHT22;10238;49.556;10.956;2023-08-21T06:00:21;23.10;99.90
20155;DHT22;10238;49.556;10.956;2023-08-21T06:03:09;23.20;99.90
20155;DHT22;10238;49.556;10.956;2023-08-21T06:05:57;23.20;99.90
20155;DHT22;10238;49.556;10.956;2023-08-21T06:08:44;23.30;99.90
20155;DHT22;10238;49.556;10.956;2023-08-21T06:11:33;23.20;99.90
20155;DHT22;10238;49.556;10.956;2023-08-21T06:14:21;23.30;99.90
20155;DHT22;10238;49.556;10.956;2023-08-21T06:17:15;23.30;99.90
20155;DHT22;10238;49.556;10.956;2023-08-21T06:20:03;23.30;99.90
20155;DHT22;10238;49.556;10.956;2023-08-21T06:22:52;23.30;99.90
20155;DHT22;10238;49.556;10.956;2023-08-21T06:25:39;23.40;99.90
20155;DHT22;10238;49.556;10.956;2023-08-21T06:28:31;23.40;99.90
20155;DHT22;10238;49.556;10.956;2023-08-21T06:31:19;23.50;99.90
20155;DHT22;10238;49.556;10.956;2023-08-21T06:34:07;23.60;99.90
20155;DHT22;10238;49.556;10.956;2023-08-21T06:36:54;23.60;99.90
20155;DHT22;10238;49.556;10.956;2023-08-21T06:39:42;23.60;99.90
20155;DHT22;10238;49.556;10.956;2023-08-21T06:42:29;23.70;99.90
20155;DHT22;10238;49.556;10.956;2023-08-21T06:45:18;23.70;99.90
20155;DHT22;10238;49.556;10.956;2023-08-21T06:48:06;23.80;99.90
20155;DHT22;10238;49.556;10.956;2023-08-21T06:50:54;23.80;99.90
20155;DHT22;10238;49.556;10.956;2023-08-21T06:53:43;23.80;99.90
20155;DHT22;10238;49.556;10.956;2023-08-21T06:56:32;23.80;99.90
20155;DHT22;10238;49.556;10.956;2023-08-21T06:59:19;23.90;99.90
20155;DHT22;10238;49.556;10.956;2023-08-21T07:02:09;24.00;99.90
20155;DHT22;10238;49.556;10.956;2023-08-21T07:04:56;24.10;99.90
20155;DHT22;10238;49.556;10.956;2023-08-21T07:07:44;24.10;99.90
20155;DHT22;10238;49.556;10.956;2023-08-21T07:10:36;24.20;99.90
20155;DHT22;10238;49.556;10.956;2023-08-21T07:13:24;24.30;99.90
20155;DHT22;10238;49.556;10.956;2023-08-21T07:16:12;24.40;99.90
20155;DHT22;10238;49.556;10.956;2023-08-21T07:19:01;24.60;99.90
20155;DHT22;10238;49.556;10.956;2023-08-21T07:21:49;24.80;99.90
20155;DHT22;10238;49.556;10.956;2023-08-21T07:24:36;25.00;99.90
20155;DHT22;10238;49.556;10.956;2023-08-21T07:27:24;25.20;99.90
20155;DHT22;10238;49.556;10.956;2023-08-21T07:30:12;25.50;99.90
20155;DHT22;10238;49.556;10.956;2023-08-21T07:33:00;25.70;99.90
20155;DHT22;10238;49.556;10.956;2023-08-21T07:35:58;25.80;99.90
20155;DHT22;10238;49.556;10.956;2023-08-21T07:38:46;25.90;99.90
20155;DHT22;10238;49.556;10.956;2023-08-21T07:41:33;26.00;99.90
20155;DHT22;10238;49.556;10.956;2023-08-21T07:44:22;26.10;99.90
20155;DHT22;10238;49.556;10.956;2023-08-21T07:47:09;26.20;99.90
20155;DHT22;10238;49.556;10.956;2023-08-21T07:49:57;26.20;99.90
20155;DHT22;10238;49.556;10.956;2023-08-21T07:52:46;26.50;99.90
20155;DHT22;10238;49.556;10.956;2023-08-21T07:55:34;26.50;99.90
20155;DHT22;10238;49.556;10.956;2023-08-21T07:58:22;26.70;99.90
20155;DHT22;10238;49.556;10.956;2023-08-21T08:01:09;26.90;99.90
20155;DHT22;10238;49.556;10.956;2023-08-21T08:03:57;27.00;99.90
20155;DHT22;10238;49.556;10.956;2023-08-21T08:06:45;27.10;99.90
20155;DHT22;10238;49.556;10.956;2023-08-21T08:09:35;27.30;99.90
20155;DHT22;10238;49.556;10.956;2023-08-21T08:12:23;27.50;99.90
20155;DHT22;10238;49.556;10.956;2023-08-21T08:15:11;27.80;99.90
20155;DHT22;10238;49.556;10.956;2023-08-21T08:17:59;28.00;99.90
20155;DHT22;10238;49.556;10.956;2023-08-21T08:20:48;28.20;99.90
20155;DHT22;10238;49.556;10.956;2023-08-21T08:23:35;28.40;99.90
20155;DHT22;10238;49.556;10.956;2023-08-21T08:26:24;28.50;99.90
20155;DHT22;10238;49.556;10.956;2023-08-21T08:29:12;28.70;99.90
20155;DHT22;10238;49.556;10.956;2023-08-21T08:31:59;29.00;99.90
20155;DHT22;10238;49.556;10.956;2023-08-21T08:34:47;29.20;99.90
20155;DHT22;10238;49.556;10.956;2023-08-21T08:37:35;29.40;99.90
20155;DHT22;10238;49.556;10.956;2023-08-21T08:40:23;29.70;99.90
20155;DHT22;10238;49.556;10.956;2023-08-21T08:43:12;30.00;99.90
20155;DHT22;10238;49.556;10.956;2023-08-21T08:46:01;30.20;99.90
20155;DHT22;10238;49.556;10.956;2023-08-21T08:48:51;30.50;99.90
20155;DHT22;10238;49.556;10.956;2023-08-21T08:51:42;30.80;99.90
20155;DHT22;10238;49.556;10.956;2023-08-21T08:54:30;31.00;99.90
20155;DHT22;10238;49.556;10.956;2023-08-21T08:57:19;31.30;99.90
20155;DHT22;10238;49.556;10.956;2023-08-21T09:00:10;31.50;99.90
20155;DHT22;10238;49.556;10.956;2023-08-21T09:02:58;31.60;99.90
20155;DHT22;10238;49.556;10.956;2023-08-21T09:05:47;31.90;99.90
20155;DHT22;10238;49.556;10.956;2023-08-21T09:08:36;32.10;99.90
20155;DHT22;10238;49.556;10.956;2023-08-21T09:11:24;32.40;99.90
20155;DHT22;10238;49.556;10.956;2023-08-21T09:14:12;32.60;99.90
20155;DHT22;10238;49.556;10.956;2023-08-21T09:17:02;32.70;99.90
20155;DHT22;10238;49.556;10.956;2023-08-21T09:19:51;32.90;99.90
20155;DHT22;10238;49.556;10.956;2023-08-21T09:22:39;33.10;99.90
20155;DHT22;10238;49.556;10.956;2023-08-21T09:25:27;33.40;99.90
20155;DHT22;10238;49.556;10.956;2023-08-21T09:28:18;33.50;99.90
20155;DHT22;10238;49.556;10.956;2023-08-21T09:31:08;33.70;99.90
20155;DHT22;10238;49.556;10.956;2023-08-21T09:33:58;33.90;99.90
20155;DHT22;10238;49.556;10.956;2023-08-21T09:36:54;34.10;99.90
20155;DHT22;10238;49.556;10.956;2023-08-21T09:39:42;34.20;99.90
20155;DHT22;10238;49.556;10.956;2023-08-21T09:42:30;34.40;99.90
20155;DHT22;10238;49.556;10.956;2023-08-21T09:45:20;34.50;99.90
20155;DHT22;10238;49.556;10.956;2023-08-21T09:48:08;34.70;99.90
20155;DHT22;10238;49.556;10.956;2023-08-21T09:50:58;34.70;99.90
20155;DHT22;10238;49.556;10.956;2023-08-21T09:53:50;34.90;99.90
20155;DHT22;10238;49.556;10.956;2023-08-21T09:56:42;35.10;99.90
20155;DHT22;10238;49.556;10.956;2023-08-21T09:59:29;35.20;99.90
20155;DHT22;10238;49.556;10.956;2023-08-21T10:02:18;35.40;99.90
20155;DHT22;10238;49.556;10.956;2023-08-21T10:05:07;35.40;99.90
20155;DHT22;10238;49.556;10.956;2023-08-21T10:08:01;35.50;99.90
20155;DHT22;10238;49.556;10.956;2023-08-21T10:10:51;35.50;99.90
20155;DHT22;10238;49.556;10.956;2023-08-21T10:13:39;35.70;99.90
20155;DHT22;10238;49.556;10.956;2023-08-21T10:16:28;35.90;99.90
20155;DHT22;10238;49.556;10.956;2023-08-21T10:19:17;36.10;99.90
20155;DHT22;10238;49.556;10.956;2023-08-21T10:22:05;36.10;99.90
20155;DHT22;10238;49.556;10.956;2023-08-21T10:24:59;36.30;99.90
20155;DHT22;10238;49.556;10.956;2023-08-21T10:27:49;36.30;99.90
20155;DHT22;10238;49.556;10.956;2023-08-21T10:30:39;36.00;99.90
20155;DHT22;10238;49.556;10.956;2023-08-21T10:33:45;36.00;99.90
20155;DHT22;10238;49.556;10.956;2023-08-21T10:40:00;36.70;99.90
20155;DHT22;10238;49.556;10.956;2023-08-21T10:42:49;36.90;99.90
20155;DHT22;10238;49.556;10.956;2023-08-21T10:45:53;37.10;99.90
20155;DHT22;10238;49.556;10.956;2023-08-21T10:48:42;37.30;99.90
20155;DHT22;10238;49.556;10.956;2023-08-21T10:51:30;37.30;99.90
20155;DHT22;10238;49.556;10.956;2023-08-21T10:54:17;37.40;99.90
20155;DHT22;10238;49.556;10.956;2023-08-21T10:57:07;37.60;99.90
20155;DHT22;10238;49.556;10.956;2023-08-21T10:59:57;37.60;99.90
20155;DHT22;10238;49.556;10.956;2023-08-21T11:02:47;37.60;99.90
20155;DHT22;10238;49.556;10.956;2023-08-21T11:05:36;37.70;99.90
20155;DHT22;10238;49.556;10.956;2023-08-21T11:08:24;37.90;99.90
20155;DHT22;10238;49.556;10.956;2023-08-21T11:11:11;38.00;99.90
20155;DHT22;10238;49.556;10.956;2023-08-21T11:14:00;38.10;99.50
20155;DHT22;10238;49.556;10.956;2023-08-21T11:16:50;38.20;98.80
20155;DHT22;10238;49.556;10.956;2023-08-21T11:19:38;38.30;99.90
20155;DHT22;10238;49.556;10.956;2023-08-21T11:22:32;38.30;99.50
20155;DHT22;10238;49.556;10.956;2023-08-21T11:25:20;38.30;99.90
20155;DHT22;10238;49.556;10.956;2023-08-21T11:28:09;38.20;98.90
20155;DHT22;10238;49.556;10.956;2023-08-21T11:30:58;38.10;99.50
20155;DHT22;10238;49.556;10.956;2023-08-21T11:33:49;38.40;99.90
20155;DHT22;10238;49.556;10.956;2023-08-21T11:36:37;38.50;99.60
20155;DHT22;10238;49.556;10.956;2023-08-21T11:39:26;38.70;99.90
20155;DHT22;10238;49.556;10.956;2023-08-21T11:42:16;39.00;98.30
20155;DHT22;10238;49.556;10.956;2023-08-21T11:45:05;39.10;96.80
20155;DHT22;10238;49.556;10.956;2023-08-21T11:47:57;39.20;97.50
20155;DHT22;10238;49.556;10.956;2023-08-21T11:50:47;39.10;97.80
20155;DHT22;10238;49.556;10.956;2023-08-21T11:53:37;39.00;97.80
20155;DHT22;10238;49.556;10.956;2023-08-21T11:56:28;39.30;96.80
20155;DHT22;10238;49.556;10.956;2023-08-21T11:59:21;39.50;96.40
20155;DHT22;10238;49.556;10.956;2023-08-21T12:02:14;39.60;96.80
20155;DHT22;10238;49.556;10.956;2023-08-21T12:05:14;39.60;96.30
20155;DHT22;10238;49.556;10.956;2023-08-21T12:08:02;39.60;95.00
20155;DHT22;10238;49.556;10.956;2023-08-21T12:10:51;39.60;95.90
20155;DHT22;10238;49.556;10.956;2023-08-21T12:13:39;39.60;95.10
20155;DHT22;10238;49.556;10.956;2023-08-21T12:16:26;39.70;93.20
20155;DHT22;10238;49.556;10.956;2023-08-21T12:19:14;39.60;94.00
20155;DHT22;10238;49.556;10.956;2023-08-21T12:22:03;39.60;92.40
20155;DHT22;10238;49.556;10.956;2023-08-21T12:24:51;39.60;93.50
20155;DHT22;10238;49.556;10.956;2023-08-21T12:27:39;39.60;93.80
20155;DHT22;10238;49.556;10.956;2023-08-21T12:30:27;39.70;93.00
20155;DHT22;10238;49.556;10.956;2023-08-21T12:33:14;39.80;93.10
20155;DHT22;10238;49.556;10.956;2023-08-21T12:36:09;39.90;93.10
20155;DHT22;10238;49.556;10.956;2023-08-21T12:38:58;39.80;93.20
20155;DHT22;10238;49.556;10.956;2023-08-21T12:41:46;39.60;93.30
20155;DHT22;10238;49.556;10.956;2023-08-21T12:44:34;39.60;93.50
20155;DHT22;10238;49.556;10.956;2023-08-21T12:47:22;39.70;91.90
20155;DHT22;10238;49.556;10.956;2023-08-21T12:50:10;39.70;92.10
20155;DHT22;10238;49.556;10.956;2023-08-21T12:52:59;39.60;92.20
20155;DHT22;10238;49.556;10.956;2023-08-21T12:55:48;39.70;91.30
20155;DHT22;10238;49.556;10.956;2023-08-21T12:58:36;39.70;90.50
20155;DHT22;10238;49.556;10.956;2023-08-21T13:01:50;39.70;93.20
20155;DHT22;10238;49.556;10.956;2023-08-21T13:04:38;39.90;94.30
20155;DHT22;10238;49.556;10.956;2023-08-21T13:07:25;39.90;92.60
20155;DHT22;10238;49.556;10.956;2023-08-21T13:10:13;40.00;92.60
20155;DHT22;10238;49.556;10.956;2023-08-21T13:13:02;40.20;90.90
20155;DHT22;10238;49.556;10.956;2023-08-21T13:15:50;40.30;91.40
20155;DHT22;10238;49.556;10.956;2023-08-21T13:18:40;40.30;90.60
20155;DHT22;10238;49.556;10.956;2023-08-21T13:21:27;40.20;90.90
20155;DHT22;10238;49.556;10.956;2023-08-21T13:24:15;39.80;91.20
20155;DHT22;10238;49.556;10.956;2023-08-21T13:27:02;39.40;91.40
20155;DHT22;10238;49.556;10.956;2023-08-21T13:29:52;39.60;92.20
20155;DHT22;10238;49.556;10.956;2023-08-21T13:32:39;39.30;91.20
20155;DHT22;10238;49.556;10.956;2023-08-21T13:35:27;38.80;91.20
20155;DHT22;10238;49.556;10.956;2023-08-21T13:38:16;39.00;92.30
20155;DHT22;10238;49.556;10.956;2023-08-21T13:41:04;39.30;91.50
20155;DHT22;10238;49.556;10.956;2023-08-21T13:43:51;39.70;91.30
20155;DHT22;10238;49.556;10.956;2023-08-21T13:46:42;39.70;91.70
20155;DHT22;10238;49.556;10.956;2023-08-21T13:49:29;39.80;91.50
20155;DHT22;10238;49.556;10.956;2023-08-21T13:52:17;40.00;90.50
20155;DHT22;10238;49.556;10.956;2023-08-21T13:55:05;39.90;90.20
20155;DHT22;10238;49.556;10.956;2023-08-21T13:57:53;40.00;91.30
20155;DHT22;10238;49.556;10.956;2023-08-21T14:00:40;40.10;90.20
20155;DHT22;10238;49.556;10.956;2023-08-21T14:03:29;40.30;90.90
20155;DHT22;10238;49.556;10.956;2023-08-21T14:06:17;40.30;88.70
20155;DHT22;10238;49.556;10.956;2023-08-21T14:09:05;40.30;90.20
20155;DHT22;10238;49.556;10.956;2023-08-21T14:11:52;40.30;90.30
20155;DHT22;10238;49.556;10.956;2023-08-21T14:14:40;40.30;88.90
20155;DHT22;10238;49.556;10.956;2023-08-21T14:17:27;40.10;90.60
20155;DHT22;10238;49.556;10.956;2023-08-21T14:20:17;40.10;90.30
20155;DHT22;10238;49.556;10.956;2023-08-21T14:23:04;39.80;90.10
20155;DHT22;10238;49.556;10.956;2023-08-21T14:25:52;39.20;88.70
20155;DHT22;10238;49.556;10.956;2023-08-21T14:28:40;38.70;91.00
20155;DHT22;10238;49.556;10.956;2023-08-21T14:31:28;38.90;91.60
20155;DHT22;10238;49.556;10.956;2023-08-21T14:34:15;39.30;91.60
20155;DHT22;10238;49.556;10.956;2023-08-21T14:37:05;39.40;90.20
20155;DHT22;10238;49.556;10.956;2023-08-21T14:39:52;39.30;91.50
20155;DHT22;10238;49.556;10.956;2023-08-21T14:42:40;39.50;90.70
20155;DHT22;10238;49.556;10.956;2023-08-21T14:45:28;39.40;90.60
20155;DHT22;10238;49.556;10.956;2023-08-21T14:48:16;39.30;90.20
20155;DHT22;10238;49.556;10.956;2023-08-21T14:51:04;39.30;88.20
20155;DHT22;10238;49.556;10.956;2023-08-21T14:53:54;39.10;89.70
20155;DHT22;10238;49.556;10.956;2023-08-21T14:56:42;39.00;90.60
20155;DHT22;10238;49.556;10.956;2023-08-21T14:59:29;39.10;89.90
20155;DHT22;10238;49.556;10.956;2023-08-21T15:02:17;39.20;90.30
20155;DHT22;10238;49.556;10.956;2023-08-21T15:05:06;39.20;91.10
20155;DHT22;10238;49.556;10.956;2023-08-21T15:07:55;39.40;91.00
20155;DHT22;10238;49.556;10.956;2023-08-21T15:10:46;39.40;90.80
20155;DHT22;10238;49.556;10.956;2023-08-21T15:13:33;39.40;90.90
20155;DHT22;10238;49.556;10.956;2023-08-21T15:16:21;39.60;91.00
20155;DHT22;10238;49.556;10.956;2023-08-21T15:19:09;39.60;91.40
20155;DHT22;10238;49.556;10.956;2023-08-21T15:21:56;39.80;90.90
20155;DHT22;10238;49.556;10.956;2023-08-21T15:24:44;40.00;89.20
20155;DHT22;10238;49.556;10.956;2023-08-21T15:27:33;39.60;88.00
20155;DHT22;10238;49.556;10.956;2023-08-21T15:30:21;39.50;89.30
20155;DHT22;10238;49.556;10.956;2023-08-21T15:33:09;39.40;90.80
20155;DHT22;10238;49.556;10.956;2023-08-21T15:35:56;39.30;90.70
20155;DHT22;10238;49.556;10.956;2023-08-21T15:38:43;39.40;90.60
20155;DHT22;10238;49.556;10.956;2023-08-21T15:41:31;39.50;90.80
20155;DHT22;10238;49.556;10.956;2023-08-21T15:44:20;39.70;90.70
20155;DHT22;10238;49.556;10.956;2023-08-21T15:47:08;39.70;90.10
20155;DHT22;10238;49.556;10.956;2023-08-21T15:49:59;39.70;89.60
20155;DHT22;10238;49.556;10.956;2023-08-21T15:52:47;39.60;88.40
20155;DHT22;10238;49.556;10.956;2023-08-21T15:55:35;39.70;90.50
20155;DHT22;10238;49.556;10.956;2023-08-21T15:58:22;39.60;89.20
20155;DHT22;10238;49.556;10.956;2023-08-21T16:01:11;39.50;87.60
20155;DHT22;10238;49.556;10.956;2023-08-21T16:03:59;39.50;88.30
20155;DHT22;10238;49.556;10.956;2023-08-21T16:06:47;39.40;87.90
20155;DHT22;10238;49.556;10.956;2023-08-21T16:09:35;39.20;90.00
20155;DHT22;10238;49.556;10.956;2023-08-21T16:12:23;39.00;88.00
20155;DHT22;10238;49.556;10.956;2023-08-21T16:15:11;38.70;89.80
20155;DHT22;10238;49.556;10.956;2023-08-21T16:18:00;38.50;89.40
20155;DHT22;10238;49.556;10.956;2023-08-21T16:20:48;38.30;89.10
20155;DHT22;10238;49.556;10.956;2023-08-21T16:23:36;38.20;90.90
20155;DHT22;10238;49.556;10.956;2023-08-21T16:26:24;38.00;89.80
20155;DHT22;10238;49.556;10.956;2023-08-21T16:29:11;38.00;90.70
20155;DHT22;10238;49.556;10.956;2023-08-21T16:32:00;38.10;92.00
20155;DHT22;10238;49.556;10.956;2023-08-21T16:34:49;38.20;90.10
20155;DHT22;10238;49.556;10.956;2023-08-21T16:37:37;38.10;90.90
20155;DHT22;10238;49.556;10.956;2023-08-21T16:40:27;38.10;92.50
20155;DHT22;10238;49.556;10.956;2023-08-21T16:43:16;38.00;91.70
20155;DHT22;10238;49.556;10.956;2023-08-21T16:46:04;38.00;90.80
20155;DHT22;10238;49.556;10.956;2023-08-21T16:48:52;37.90;91.70
20155;DHT22;10238;49.556;10.956;2023-08-21T16:51:41;37.80;91.40
20155;DHT22;10238;49.556;10.956;2023-08-21T16:54:29;37.70;91.50
20155;DHT22;10238;49.556;10.956;2023-08-21T16:57:17;37.60;91.20
20155;DHT22;10238;49.556;10.956;2023-08-21T17:00:06;37.50;92.20
20155;DHT22;10238;49.556;10.956;2023-08-21T17:02:56;37.40;92.30
20155;DHT22;10238;49.556;10.956;2023-08-21T17:05:45;37.10;91.60
20155;DHT22;10238;49.556;10.956;2023-08-21T17:08:34;36.90;92.20
20155;DHT22;10238;49.556;10.956;2023-08-21T17:11:22;36.60;92.10
20155;DHT22;10238;49.556;10.956;2023-08-21T17:14:10;36.30;93.10
20155;DHT22;10238;49.556;10.956;2023-08-21T17:16:58;36.00;92.20
20155;DHT22;10238;49.556;10.956;2023-08-21T17:19:45;35.60;92.70
20155;DHT22;10238;49.556;10.956;2023-08-21T17:22:33;35.30;92.90
20155;DHT22;10238;49.556;10.956;2023-08-21T17:25:22;35.00;93.70
20155;DHT22;10238;49.556;10.956;2023-08-21T17:28:10;34.70;93.90
20155;DHT22;10238;49.556;10.956;2023-08-21T17:30:58;34.50;94.70